Bryant, South Dakota
Current Conditions -  °F | °C
As of 8:37 PM on Saturday 20 Dec 2014 (Local Time) from KATY Reporting Station
Haze Haze  
Wind Chill: 17°   Ceiling: 200
Heat Index: 29°   Visibility: 1mi
Dew Point: 27°   Wind: 17mph
Humidity: 92%   Direction: 170°S
Pressure: 29.91"   Gusts: NA
Location:  44.59°N, 97.47°W
Report Text: KATY 210237Z AUTO 17015KT 1SM BR OVC002 M02/M03 A2991 RMK AO2 I1000 T10171028
Loading
Personal Weather Stations






























Interactive Weather Map New forecast layout! Learn more

10-Day Weather Forecast

Advertisements
Track Severe Weather on mobile